Time;durP1;ratioP1;P1;durP2;ratioP2;P2;SDS_P1;SDS_P2;PMS_P1;PMS_P2;Temp;Humidity;BMP_temperature;BMP_pressure;BME280_temperature;BME280_humidity;BME280_pressure;Samples;Min_cycle;Max_cycle;Signal;HPM_P1;HPM_P2
2021/09/28 00:00:40;;;;;;;11.75;8.07;;;18.80;71.30;;;;;;5004438;28;20042;-39
2021/09/28 00:03:06;;;;;;;10.38;7.72;;;18.80;71.20;;;;;;5005041;28;20212;-40
2021/09/28 00:05:32;;;;;;;12.18;8.43;;;18.70;71.20;;;;;;5004728;28;20371;-39
2021/09/28 00:07:57;;;;;;;12.32;8.95;;;18.70;71.20;;;;;;5004695;28;20058;-39
2021/09/28 00:10:23;;;;;;;12.45;8.40;;;18.70;71.30;;;;;;5005609;28;20023;-39
2021/09/28 00:12:49;;;;;;;12.00;8.65;;;18.70;71.40;;;;;;5003984;28;20082;-39
2021/09/28 00:15:15;;;;;;;13.05;8.63;;;18.60;71.60;;;;;;5004678;28;20077;-39
2021/09/28 00:17:41;;;;;;;13.30;8.40;;;18.60;71.70;;;;;;5003346;28;20046;-39
2021/09/28 00:20:07;;;;;;;10.15;8.05;;;18.60;71.70;;;;;;5004515;28;20086;-39
2021/09/28 00:22:33;;;;;;;11.07;8.30;;;18.50;71.80;;;;;;5005064;28;20073;-39
2021/09/28 00:24:58;;;;;;;11.65;8.60;;;18.50;71.80;;;;;;5004919;28;20035;-39
2021/09/28 00:27:24;;;;;;;13.27;7.95;;;18.50;71.70;;;;;;5003209;28;20035;-40
2021/09/28 00:29:50;;;;;;;14.98;8.73;;;18.50;71.70;;;;;;5003800;28;20105;-39
2021/09/28 00:32:15;;;;;;;15.60;7.63;;;18.40;71.70;;;;;;5004209;28;20030;-39
2021/09/28 00:34:42;;;;;;;11.73;7.85;;;18.40;71.60;;;;;;5005025;28;20342;-39
2021/09/28 00:37:08;;;;;;;12.57;8.40;;;18.40;71.60;;;;;;5004751;28;20235;-39
2021/09/28 00:39:33;;;;;;;11.57;8.57;;;18.40;71.60;;;;;;5004574;28;20045;-39
2021/09/28 00:41:59;;;;;;;12.23;8.70;;;18.30;71.60;;;;;;5004837;28;20035;-39
2021/09/28 00:44:38;;;;;;;10.48;7.97;;;18.30;71.60;;;;;;5004108;28;20112;-38
2021/09/28 00:47:07;;;;;;;11.00;7.85;;;18.30;71.90;;;;;;5003110;28;20030;-39
2021/09/28 00:49:33;;;;;;;10.48;7.88;;;18.30;71.70;;;;;;5005085;28;20097;-39
2021/09/28 00:51:59;;;;;;;11.38;7.75;;;18.30;71.60;;;;;;5005142;28;20038;-39
2021/09/28 00:54:25;;;;;;;13.55;7.85;;;18.30;71.60;;;;;;5003694;28;20041;-39
2021/09/28 00:56:52;;;;;;;11.57;8.48;;;18.30;71.50;;;;;;5007058;28;20093;-39
2021/09/28 00:59:18;;;;;;;12.80;8.50;;;18.30;71.40;;;;;;5006283;28;20035;-39
2021/09/28 01:01:45;;;;;;;11.85;8.25;;;18.30;71.50;;;;;;5007071;28;20050;-40
2021/09/28 01:04:10;;;;;;;12.13;8.18;;;18.20;71.60;;;;;;5006880;28;20072;-39
2021/09/28 01:06:36;;;;;;;14.77;8.27;;;18.20;71.50;;;;;;5007838;28;20043;-38
2021/09/28 01:09:02;;;;;;;14.10;8.18;;;18.10;71.60;;;;;;5007599;28;20042;-39
2021/09/28 01:11:27;;;;;;;9.55;7.28;;;18.10;71.60;;;;;;5006404;28;20042;-39
2021/09/28 01:13:53;;;;;;;9.70;7.40;;;18.10;71.50;;;;;;5007834;28;20030;-39
2021/09/28 01:16:18;;;;;;;9.73;7.50;;;18.10;71.60;;;;;;5007980;28;20033;-39
2021/09/28 01:18:44;;;;;;;13.30;8.02;;;18.10;71.70;;;;;;5007649;28;20034;-39
2021/09/28 01:21:13;;;;;;;10.75;7.88;;;18.10;71.80;;;;;;5006298;28;20099;-39
2021/09/28 01:23:44;;;;;;;9.73;7.45;;;18.00;71.90;;;;;;5007146;28;20061;-39
2021/09/28 01:26:13;;;;;;;9.82;7.20;;;18.00;72.10;;;;;;5007342;28;20085;-39
2021/09/28 01:28:40;;;;;;;14.07;7.13;;;18.00;72.20;;;;;;5008139;28;20362;-39
2021/09/28 01:31:05;;;;;;;8.93;7.03;;;18.00;72.20;;;;;;5007727;28;20038;-39
2021/09/28 01:33:31;;;;;;;12.90;7.55;;;18.00;72.40;;;;;;5007370;28;20231;-39
2021/09/28 01:35:56;;;;;;;12.80;7.97;;;18.00;72.60;;;;;;5007234;28;20045;-39
2021/09/28 01:38:22;;;;;;;13.85;8.10;;;18.00;72.80;;;;;;5007473;28;20101;-39
2021/09/28 01:40:48;;;;;;;13.13;8.73;;;17.90;73.00;;;;;;5007577;28;20064;-39
2021/09/28 01:43:14;;;;;;;10.43;7.90;;;18.00;73.10;;;;;;5006863;28;20057;-39
2021/09/28 01:45:41;;;;;;;12.25;7.30;;;18.00;73.30;;;;;;5006921;28;20265;-39
2021/09/28 01:48:06;;;;;;;11.18;8.02;;;18.00;73.30;;;;;;5006751;28;20057;-39
2021/09/28 01:50:33;;;;;;;13.27;7.78;;;18.00;73.30;;;;;;4989647;28;20040;-39
2021/09/28 01:52:58;;;;;;;10.82;7.50;;;18.00;73.50;;;;;;5005387;28;20354;-39
2021/09/28 01:55:24;;;;;;;12.73;7.90;;;18.00;73.50;;;;;;5007339;28;20089;-39
2021/09/28 01:57:55;;;;;;;12.43;8.23;;;18.00;73.70;;;;;;5005564;28;20151;-39
2021/09/28 02:00:24;;;;;;;11.35;8.32;;;18.00;73.70;;;;;;5006464;28;20057;-39
2021/09/28 02:02:49;;;;;;;11.13;8.30;;;18.10;73.70;;;;;;5006584;28;20223;-39
2021/09/28 02:05:15;;;;;;;11.82;8.70;;;18.00;73.70;;;;;;5006285;28;20053;-39
2021/09/28 02:07:41;;;;;;;11.35;8.73;;;18.00;73.80;;;;;;5006829;28;20038;-39
2021/09/28 02:10:07;;;;;;;14.63;8.68;;;18.10;73.90;;;;;;5006648;28;20058;-39
2021/09/28 02:12:33;;;;;;;12.27;8.05;;;18.10;73.70;;;;;;5006183;28;20030;-39
2021/09/28 02:14:59;;;;;;;14.73;8.30;;;18.10;73.80;;;;;;5005331;28;20030;-39
2021/09/28 02:17:24;;;;;;;11.98;7.63;;;18.10;73.90;;;;;;5005651;28;20045;-39
2021/09/28 02:19:50;;;;;;;13.55;8.20;;;18.00;73.80;;;;;;5006283;28;20034;-39
2021/09/28 02:22:15;;;;;;;12.30;8.38;;;18.10;73.80;;;;;;5006635;28;20081;-39
2021/09/28 02:24:41;;;;;;;13.35;8.02;;;18.10;73.70;;;;;;5006271;28;20053;-39
2021/09/28 02:27:07;;;;;;;13.13;7.32;;;18.10;73.60;;;;;;5004921;28;20048;-39
2021/09/28 02:29:33;;;;;;;12.38;7.97;;;18.10;73.60;;;;;;5006202;28;20057;-39
2021/09/28 02:31:59;;;;;;;10.07;7.68;;;18.00;73.60;;;;;;5006042;28;20081;-39
2021/09/28 02:34:25;;;;;;;11.70;8.00;;;18.00;73.60;;;;;;5005785;28;20319;-39
2021/09/28 02:36:50;;;;;;;10.13;7.63;;;18.00;73.60;;;;;;5006110;28;20034;-39
2021/09/28 02:39:16;;;;;;;10.32;7.47;;;18.00;73.70;;;;;;5005627;28;20030;-39
2021/09/28 02:41:41;;;;;;;9.73;7.50;;;18.00;73.70;;;;;;5005730;28;20030;-39
2021/09/28 02:44:07;;;;;;;9.30;6.72;;;18.00;73.60;;;;;;5004668;28;20335;-39
2021/09/28 02:46:33;;;;;;;11.43;7.25;;;18.00;73.50;;;;;;5005274;28;20030;-39
2021/09/28 02:48:59;;;;;;;10.73;7.15;;;18.10;73.40;;;;;;5005953;28;20041;-39
2021/09/28 02:51:24;;;;;;;9.60;7.50;;;18.00;73.40;;;;;;5004597;28;20219;-39
2021/09/28 02:53:50;;;;;;;9.95;7.15;;;18.10;73.20;;;;;;5005450;28;20370;-39
2021/09/28 02:56:15;;;;;;;10.75;7.07;;;18.10;73.10;;;;;;5005583;28;20200;-39
2021/09/28 02:58:41;;;;;;;10.68;7.85;;;18.10;73.00;;;;;;5006126;28;20034;-39
2021/09/28 03:01:07;;;;;;;11.05;7.25;;;18.00;72.90;;;;;;5005576;28;20054;-40
2021/09/28 03:03:32;;;;;;;13.23;7.43;;;18.00;72.90;;;;;;5005700;28;20094;-39
2021/09/28 03:05:58;;;;;;;11.20;7.25;;;18.00;73.00;;;;;;5005498;28;20038;-39
2021/09/28 03:08:23;;;;;;;11.38;6.45;;;18.00;73.10;;;;;;5005336;28;20369;-39
2021/09/28 03:10:49;;;;;;;12.55;7.38;;;18.00;73.10;;;;;;5005192;28;20057;-39
2021/09/28 03:13:14;;;;;;;10.25;6.80;;;18.00;73.10;;;;;;5005515;28;20035;-39
2021/09/28 03:15:40;;;;;;;8.88;6.68;;;18.00;73.10;;;;;;5004200;28;20035;-39
2021/09/28 03:18:06;;;;;;;8.82;6.68;;;18.00;73.20;;;;;;5004132;28;20338;-39
2021/09/28 03:20:31;;;;;;;12.25;6.97;;;18.00;73.30;;;;;;5004757;28;20243;-39
2021/09/28 03:22:57;;;;;;;10.07;6.72;;;18.00;73.30;;;;;;5004734;28;20041;-39
2021/09/28 03:25:23;;;;;;;11.02;7.32;;;17.90;73.20;;;;;;5005311;28;20034;-39
2021/09/28 03:27:48;;;;;;;12.45;7.28;;;17.90;73.30;;;;;;5005326;28;20039;-39
2021/09/28 03:30:14;;;;;;;10.63;6.93;;;17.90;73.30;;;;;;5004855;28;20038;-38
2021/09/28 03:32:40;;;;;;;9.27;6.45;;;18.00;73.30;;;;;;5003798;28;20034;-39
2021/09/28 03:35:09;;;;;;;10.13;6.70;;;17.90;73.30;;;;;;5004917;28;20058;-39
2021/09/28 03:37:38;;;;;;;10.35;6.90;;;17.90;73.30;;;;;;5005057;28;20026;-38
2021/09/28 03:40:05;;;;;;;10.57;7.60;;;17.90;73.20;;;;;;5005300;28;20054;-39
2021/09/28 03:42:31;;;;;;;13.95;7.30;;;17.90;73.30;;;;;;5004563;28;20039;-38
2021/09/28 03:44:57;;;;;;;12.18;6.50;;;17.90;73.40;;;;;;5004864;28;20197;-39
2021/09/28 03:47:22;;;;;;;12.52;7.20;;;17.90;73.50;;;;;;5004699;28;20066;-39
2021/09/28 03:49:48;;;;;;;11.32;7.13;;;17.90;73.60;;;;;;5005208;28;20212;-39
2021/09/28 03:52:13;;;;;;;11.50;7.57;;;17.90;73.80;;;;;;5004736;28;20105;-39
2021/09/28 03:54:39;;;;;;;10.50;7.28;;;17.90;74.10;;;;;;5004487;28;20034;-39
2021/09/28 03:57:04;;;;;;;12.70;7.32;;;17.90;74.20;;;;;;5004050;28;20045;-39
2021/09/28 03:59:30;;;;;;;12.00;7.32;;;17.90;74.30;;;;;;5004448;28;20056;-39
2021/09/28 04:01:55;;;;;;;11.07;7.57;;;17.90;74.30;;;;;;5003463;28;20049;-39
2021/09/28 04:04:21;;;;;;;10.73;7.30;;;17.90;74.30;;;;;;5005440;28;20050;-39
2021/09/28 04:06:46;;;;;;;10.05;7.05;;;18.00;74.10;;;;;;5005077;28;20355;-39
2021/09/28 04:09:12;;;;;;;10.57;6.93;;;18.00;74.20;;;;;;5004921;28;20035;-39
2021/09/28 04:11:38;;;;;;;9.75;6.78;;;17.90;74.20;;;;;;5004714;28;20037;-39
2021/09/28 04:14:03;;;;;;;10.27;6.78;;;17.90;74.10;;;;;;5003995;28;20068;-39
2021/09/28 04:16:30;;;;;;;11.52;7.13;;;17.90;74.00;;;;;;5005290;28;20034;-39
2021/09/28 04:18:55;;;;;;;11.45;7.00;;;18.00;74.10;;;;;;5004934;28;20042;-39
2021/09/28 04:21:21;;;;;;;11.77;7.18;;;17.90;74.10;;;;;;5004593;28;20061;-39
2021/09/28 04:23:49;;;;;;;11.82;6.85;;;17.90;74.10;;;;;;5003370;28;20084;-39
2021/09/28 04:26:14;;;;;;;12.52;7.22;;;17.90;74.00;;;;;;5003424;28;20098;-39
2021/09/28 04:28:40;;;;;;;10.43;7.25;;;17.90;74.10;;;;;;5004799;28;20308;-39
2021/09/28 04:31:07;;;;;;;12.68;7.20;;;17.90;74.20;;;;;;5006772;28;20034;-39
2021/09/28 04:33:33;;;;;;;14.27;8.20;;;17.90;74.50;;;;;;5008167;28;20094;-39
2021/09/28 04:35:59;;;;;;;13.23;9.43;;;17.80;74.80;;;;;;5006762;28;20335;-39
2021/09/28 04:38:24;;;;;;;19.15;10.68;;;17.80;75.10;;;;;;5008372;28;20351;-39
2021/09/28 04:40:50;;;;;;;16.13;10.52;;;17.80;75.30;;;;;;5008023;28;20346;-39
2021/09/28 04:43:15;;;;;;;18.92;11.23;;;17.80;75.40;;;;;;5008434;28;20033;-39
2021/09/28 04:45:41;;;;;;;18.95;11.02;;;17.80;75.40;;;;;;5007664;28;20052;-39
2021/09/28 04:48:06;;;;;;;15.05;10.65;;;17.80;75.50;;;;;;5007666;28;20041;-39
2021/09/28 04:50:32;;;;;;;17.27;11.00;;;17.80;75.60;;;;;;5007715;28;20238;-39
2021/09/28 04:52:57;;;;;;;15.68;10.65;;;17.80;75.70;;;;;;5007593;28;20366;-39
2021/09/28 04:55:23;;;;;;;17.17;11.20;;;17.80;75.50;;;;;;5007946;28;20038;-39
2021/09/28 04:57:48;;;;;;;14.43;10.38;;;17.80;75.60;;;;;;5007119;28;20373;-39
2021/09/28 05:00:14;;;;;;;16.95;11.13;;;17.80;75.70;;;;;;5007227;28;20354;-38
2021/09/28 05:02:41;;;;;;;15.85;11.38;;;17.80;75.80;;;;;;5005837;28;20398;-39
2021/09/28 05:05:07;;;;;;;18.98;10.90;;;17.80;75.90;;;;;;5006683;28;20278;-39
2021/09/28 05:07:32;;;;;;;15.40;10.50;;;17.80;75.80;;;;;;5007555;28;20082;-39
2021/09/28 05:09:58;;;;;;;15.77;10.82;;;17.80;75.80;;;;;;5007180;28;20354;-39
2021/09/28 05:12:23;;;;;;;16.83;11.32;;;17.80;75.70;;;;;;5006549;28;20058;-39
2021/09/28 05:14:49;;;;;;;18.35;11.32;;;17.80;75.70;;;;;;5006732;28;20039;-39
2021/09/28 05:17:15;;;;;;;15.80;10.70;;;17.80;75.70;;;;;;5006623;28;20037;-39
2021/09/28 05:19:40;;;;;;;15.10;11.18;;;17.80;75.50;;;;;;5007141;28;20329;-39
2021/09/28 05:22:06;;;;;;;16.00;10.93;;;17.90;75.50;;;;;;5005752;28;20050;-39
2021/09/28 05:24:31;;;;;;;15.57;10.80;;;17.90;75.40;;;;;;5006209;28;20038;-39
2021/09/28 05:26:57;;;;;;;15.77;10.43;;;17.90;75.40;;;;;;5005481;28;20102;-39
2021/09/28 05:29:22;;;;;;;15.25;10.98;;;17.90;75.30;;;;;;5006169;28;20335;-39
2021/09/28 05:31:48;;;;;;;17.33;11.10;;;17.90;75.30;;;;;;5006781;28;20038;-39
2021/09/28 05:34:15;;;;;;;17.02;10.32;;;17.90;75.20;;;;;;5005479;28;20065;-39
2021/09/28 05:36:41;;;;;;;14.07;9.90;;;18.00;75.10;;;;;;5006298;28;20215;-39
2021/09/28 05:39:06;;;;;;;15.48;10.25;;;18.00;75.30;;;;;;5005681;28;20030;-39
2021/09/28 05:41:32;;;;;;;18.33;10.18;;;18.00;75.20;;;;;;5005008;28;20035;-39
2021/09/28 05:43:58;;;;;;;17.67;10.23;;;18.00;75.20;;;;;;5005748;28;20027;-39
2021/09/28 05:46:24;;;;;;;15.23;9.52;;;18.00;75.20;;;;;;5006489;28;20231;-39
2021/09/28 05:48:49;;;;;;;14.80;9.93;;;18.00;75.30;;;;;;5006446;28;20045;-39
2021/09/28 05:51:16;;;;;;;16.33;10.27;;;18.00;75.30;;;;;;5006325;28;20041;-39
2021/09/28 05:53:44;;;;;;;16.30;10.13;;;18.00;75.30;;;;;;5005810;28;20041;-39
2021/09/28 05:56:10;;;;;;;15.88;9.60;;;18.00;75.40;;;;;;5005737;28;20030;-39
2021/09/28 05:58:36;;;;;;;14.25;9.82;;;17.90;75.60;;;;;;5007193;28;20026;-39
2021/09/28 06:01:01;;;;;;;11.43;8.38;;;18.00;75.50;;;;;;5006431;28;20335;-39
2021/09/28 06:03:27;;;;;;;18.42;9.23;;;17.90;75.50;;;;;;5006370;28;20089;-39
2021/09/28 06:05:52;;;;;;;16.23;8.68;;;18.00;75.50;;;;;;5005933;28;20385;-39
2021/09/28 06:08:18;;;;;;;14.10;8.50;;;17.90;75.50;;;;;;5005981;28;20026;-38
2021/09/28 06:10:44;;;;;;;11.05;7.72;;;18.00;75.40;;;;;;5006080;28;20080;-39
2021/09/28 06:13:10;;;;;;;11.27;7.30;;;18.00;75.30;;;;;;5005284;28;20041;-39
2021/09/28 06:15:35;;;;;;;11.70;7.15;;;18.00;75.10;;;;;;5005927;28;20274;-39
2021/09/28 06:18:01;;;;;;;9.77;7.30;;;18.10;75.20;;;;;;5006313;28;20181;-39
2021/09/28 06:20:26;;;;;;;13.23;7.00;;;18.00;75.20;;;;;;5006272;28;20034;-39
2021/09/28 06:22:52;;;;;;;9.07;6.70;;;18.00;75.30;;;;;;5005481;28;20093;-39
2021/09/28 06:25:18;;;;;;;8.77;6.10;;;18.00;75.10;;;;;;5005445;28;20023;-39
2021/09/28 06:27:43;;;;;;;8.07;5.68;;;18.00;75.10;;;;;;5006035;28;20035;-39
2021/09/28 06:30:09;;;;;;;10.35;5.30;;;18.00;74.90;;;;;;5005356;28;20353;-39
2021/09/28 06:32:35;;;;;;;8.45;4.93;;;18.00;74.70;;;;;;5005785;28;20239;-39
2021/09/28 06:35:00;;;;;;;6.07;4.45;;;18.00;74.80;;;;;;5004287;28;20023;-38
2021/09/28 06:37:26;;;;;;;7.63;4.65;;;17.90;74.50;;;;;;5006095;28;20034;-39
2021/09/28 06:39:52;;;;;;;11.98;5.05;;;17.90;74.50;;;;;;5005465;28;20030;-38
2021/09/28 06:42:17;;;;;;;7.78;4.78;;;17.90;74.50;;;;;;5005279;28;20046;-39
2021/09/28 06:44:43;;;;;;;8.13;4.75;;;17.90;74.40;;;;;;5004867;28;20038;-38
2021/09/28 06:47:09;;;;;;;5.90;3.55;;;17.90;74.30;;;;;;5005092;28;20068;-39
2021/09/28 06:49:34;;;;;;;5.20;3.20;;;17.90;74.10;;;;;;5005889;28;20192;-38
2021/09/28 06:52:00;;;;;;;5.22;3.05;;;18.00;73.70;;;;;;5005172;28;20085;-39
2021/09/28 06:54:26;;;;;;;7.70;5.63;;;17.90;73.60;;;;;;5004818;28;20204;-38
2021/09/28 06:56:51;;;;;;;10.30;5.70;;;17.90;73.50;;;;;;5004535;28;20062;-39
2021/09/28 06:59:18;;;;;;;3.15;2.00;;;17.90;73.30;;;;;;5004292;28;20046;-39
2021/09/28 07:01:44;;;;;;;3.45;1.90;;;17.90;73.00;;;;;;5004473;28;20357;-38
2021/09/28 07:04:09;;;;;;;3.08;1.70;;;17.90;72.90;;;;;;5004522;28;20038;-39
2021/09/28 07:06:35;;;;;;;3.50;1.50;;;17.90;72.60;;;;;;5004683;28;20038;-39
2021/09/28 07:09:00;;;;;;;16.27;9.15;;;17.80;72.60;;;;;;5004679;28;20089;-39
2021/09/28 07:11:28;;;;;;;7.03;3.08;;;17.80;72.70;;;;;;5005033;28;20042;-39
2021/09/28 07:13:55;;;;;;;3.38;1.67;;;17.80;72.60;;;;;;4987775;28;20026;-39
2021/09/28 07:16:20;;;;;;;2.25;1.30;;;17.80;72.50;;;;;;5005696;28;20038;-39
2021/09/28 07:18:46;;;;;;;2.05;1.17;;;17.80;72.60;;;;;;4978391;28;20046;-39
2021/09/28 07:21:12;;;;;;;1.80;1.10;;;17.80;72.30;;;;;;5004620;28;20038;-38
2021/09/28 07:23:38;;;;;;;3.53;1.20;;;17.90;72.10;;;;;;5004240;28;20045;-39
2021/09/28 07:26:03;;;;;;;3.35;1.17;;;17.90;72.20;;;;;;5004451;28;20054;-38
2021/09/28 07:28:29;;;;;;;2.65;1.25;;;17.90;72.00;;;;;;5005276;28;20085;-39
2021/09/28 07:30:55;;;;;;;2.78;1.00;;;17.90;72.00;;;;;;5003461;28;20035;-38
2021/09/28 07:33:20;;;;;;;5.13;1.00;;;17.80;72.00;;;;;;5004199;28;20042;-39
2021/09/28 07:35:46;;;;;;;5.70;1.00;;;17.80;71.80;;;;;;5004605;28;20323;-39
2021/09/28 07:38:15;;;;;;;0.80;0.63;;;17.80;72.20;;;;;;5003087;28;20034;-39
2021/09/28 07:40:42;;;;;;;2.28;0.70;;;17.80;72.40;;;;;;5004957;28;20057;-39
2021/09/28 07:43:08;;;;;;;1.35;0.60;;;17.80;72.40;;;;;;5004478;28;20080;-39
2021/09/28 07:45:33;;;;;;;2.10;0.60;;;17.80;72.40;;;;;;5004832;28;20038;-39
2021/09/28 07:47:59;;;;;;;1.48;0.68;;;17.80;72.40;;;;;;5004516;28;20050;-39
2021/09/28 07:50:25;;;;;;;2.17;0.70;;;17.80;72.30;;;;;;5004533;28;20034;-39
2021/09/28 07:52:51;;;;;;;2.70;0.73;;;17.80;72.30;;;;;;5005331;28;20057;-39
2021/09/28 07:55:17;;;;;;;2.75;0.68;;;17.70;72.10;;;;;;5003997;28;20022;-39
2021/09/28 07:57:42;;;;;;;2.53;0.90;;;17.80;71.90;;;;;;5004206;28;20081;-39
2021/09/28 08:00:09;;;;;;;1.58;0.70;;;17.80;71.70;;;;;;5005155;28;20043;-39
2021/09/28 08:02:37;;;;;;;0.80;0.57;;;17.80;71.50;;;;;;5005031;28;20046;-39
2021/09/28 08:05:03;;;;;;;2.88;0.80;;;17.80;71.20;;;;;;5005856;28;20373;-39
2021/09/28 08:07:28;;;;;;;3.78;0.90;;;17.80;71.20;;;;;;5009334;28;20057;-38
2021/09/28 08:09:54;;;;;;;1.75;0.70;;;17.80;71.30;;;;;;5008713;28;20034;-38
2021/09/28 08:12:19;;;;;;;4.15;0.65;;;17.80;71.20;;;;;;5006513;28;20043;-39
2021/09/28 08:14:45;;;;;;;3.20;0.80;;;17.80;71.10;;;;;;5007704;28;20093;-38
2021/09/28 08:17:10;;;;;;;1.23;0.73;;;17.80;70.90;;;;;;5007745;28;20069;-39
2021/09/28 08:19:39;;;;;;;2.03;0.90;;;17.80;70.90;;;;;;5008259;28;20313;-39
2021/09/28 08:22:09;;;;;;;2.42;1.13;;;17.80;70.90;;;;;;5010041;28;20034;-38
2021/09/28 08:24:40;;;;;;;1.65;0.90;;;17.80;70.90;;;;;;5008988;28;20027;-38
2021/09/28 08:29:50;;;;;;;1.58;0.90;;;17.80;71.20;;;;;;5009831;28;19910;-39
2021/09/28 08:32:16;;;;;;;1.23;0.85;;;17.80;71.10;;;;;;5009792;28;20034;-41
2021/09/28 08:34:41;;;;;;;2.38;0.80;;;17.80;70.90;;;;;;5010124;28;20085;-41
2021/09/28 08:37:07;;;;;;;3.45;0.93;;;17.80;71.00;;;;;;5009306;28;20031;-40
2021/09/28 08:39:32;;;;;;;1.20;0.73;;;17.80;70.90;;;;;;5009329;28;20235;-39
2021/09/28 08:41:58;;;;;;;1.85;0.80;;;17.80;70.80;;;;;;5007506;28;20417;-39
2021/09/28 08:44:24;;;;;;;2.35;0.80;;;17.80;70.30;;;;;;5007177;28;20053;-39
2021/09/28 08:46:51;;;;;;;3.85;1.00;;;17.80;70.10;;;;;;5007315;28;20038;-39
2021/09/28 08:49:18;;;;;;;2.90;0.80;;;17.90;69.80;;;;;;5007667;28;20246;-38
2021/09/28 08:51:44;;;;;;;0.75;0.50;;;17.90;69.90;;;;;;5007211;28;20042;-39
2021/09/28 08:54:10;;;;;;;1.88;1.02;;;17.90;69.90;;;;;;5007158;28;20054;-39
2021/09/28 08:56:35;;;;;;;1.83;0.88;;;17.90;69.60;;;;;;5006647;28;20031;-39
2021/09/28 08:59:03;;;;;;;1.45;0.70;;;17.90;69.40;;;;;;5005789;28;20037;-38
2021/09/28 09:01:33;;;;;;;1.80;0.70;;;18.00;69.60;;;;;;5008070;28;20046;-38
2021/09/28 09:04:19;;;;;;;1.73;0.70;;;18.00;69.60;;;;;;5007360;28;20030;-38
2021/09/28 09:06:46;;;;;;;2.50;0.88;;;18.00;69.20;;;;;;5006866;28;20038;-38
2021/09/28 09:09:15;;;;;;;1.23;0.70;;;18.00;69.20;;;;;;5006930;28;20099;-38
2021/09/28 09:11:45;;;;;;;6.75;3.78;;;18.00;69.60;;;;;;5006776;28;20050;-39
2021/09/28 09:14:16;;;;;;;1.75;0.90;;;18.00;69.00;;;;;;5007093;28;20138;-39
2021/09/28 09:16:42;;;;;;;2.00;0.77;;;18.00;68.50;;;;;;5006619;28;20058;-38
2021/09/28 09:19:19;;;;;;;1.52;0.73;;;18.00;69.00;;;;;;5007135;28;20034;-39
2021/09/28 09:21:52;;;;;;;2.75;0.95;;;18.10;69.00;;;;;;5006615;28;20039;-39
2021/09/28 09:24:46;;;;;;;1.73;0.80;;;18.10;68.80;;;;;;5006492;28;20039;-39
2021/09/28 09:27:16;;;;;;;2.63;0.98;;;18.20;68.60;;;;;;5006741;28;20038;-39
2021/09/28 09:29:42;;;;;;;2.60;1.25;;;18.20;67.60;;;;;;5007077;28;20034;-39
2021/09/28 09:32:07;;;;;;;6.35;0.90;;;18.20;67.90;;;;;;5006210;28;20259;-39
2021/09/28 09:34:33;;;;;;;2.22;1.13;;;18.30;68.10;;;;;;5007057;28;20037;-39
2021/09/28 09:37:06;;;;;;;2.80;1.00;;;18.40;68.30;;;;;;5006792;28;20050;-39
2021/09/28 09:39:49;;;;;;;2.95;1.10;;;18.40;68.20;;;;;;5006473;28;20041;-39
2021/09/28 09:42:14;;;;;;;3.78;1.20;;;18.40;67.70;;;;;;5005582;28;20034;-39
2021/09/28 09:44:43;;;;;;;2.20;1.20;;;18.50;68.30;;;;;;5006565;28;20097;-39
2021/09/28 09:47:29;;;;;;;2.80;0.95;;;18.50;68.00;;;;;;5006181;28;20054;-38
2021/09/28 09:50:16;;;;;;;2.50;1.20;;;18.60;68.00;;;;;;5005465;28;20041;-39
2021/09/28 09:52:57;;;;;;;2.65;1.88;;;18.60;67.30;;;;;;5006744;28;20050;-39
2021/09/28 09:55:30;;;;;;;2.63;1.15;;;18.60;65.40;;;;;;5005933;28;20271;-39
2021/09/28 09:57:55;;;;;;;1.48;1.15;;;18.60;66.00;;;;;;5006507;28;20061;-39
2021/09/28 10:00:21;;;;;;;4.93;1.10;;;18.50;66.00;;;;;;5006511;28;20239;-38
2021/09/28 10:02:47;;;;;;;1.92;1.00;;;18.50;66.30;;;;;;5005856;28;20243;-39
2021/09/28 10:05:13;;;;;;;2.33;1.13;;;18.60;66.30;;;;;;5005120;28;20042;-39
2021/09/28 10:07:38;;;;;;;1.90;1.10;;;18.70;66.60;;;;;;5006212;28;20035;-39
2021/09/28 10:10:08;;;;;;;1.52;1.00;;;18.80;67.00;;;;;;5005103;28;20042;-39
2021/09/28 10:12:37;;;;;;;4.32;1.48;;;18.90;67.10;;;;;;5005796;28;20365;-39
2021/09/28 10:15:21;;;;;;;2.80;1.42;;;19.10;67.20;;;;;;5005583;28;20045;-39
2021/09/28 10:17:47;;;;;;;2.78;1.38;;;19.10;66.60;;;;;;5005904;28;20038;-39
2021/09/28 10:20:22;;;;;;;1.73;1.17;;;19.30;66.30;;;;;;5005274;28;20030;-39
2021/09/28 10:22:55;;;;;;;1.98;1.08;;;19.30;66.40;;;;;;5006153;28;20300;-39
2021/09/28 10:25:21;;;;;;;2.53;1.42;;;19.50;65.90;;;;;;5006032;28;20035;-39
2021/09/28 10:27:57;;;;;;;5.95;1.50;;;19.60;65.90;;;;;;5005558;28;20033;-39
2021/09/28 10:30:35;;;;;;;4.03;1.27;;;19.80;65.90;;;;;;5005231;28;20042;-39
2021/09/28 10:33:30;;;;;;;4.05;1.30;;;19.90;65.40;;;;;;5005481;28;20035;-39
2021/09/28 10:36:00;;;;;;;3.25;1.10;;;20.00;65.20;;;;;;5005705;28;20326;-39
2021/09/28 10:38:44;;;;;;;1.80;1.10;;;20.10;64.60;;;;;;5006089;28;20038;-39
2021/09/28 10:41:31;;;;;;;3.13;1.50;;;20.30;63.60;;;;;;5005428;28;20154;-39
2021/09/28 10:44:29;;;;;;;3.70;1.15;;;20.40;64.00;;;;;;5005243;28;20030;-39
2021/09/28 10:46:55;;;;;;;5.88;1.17;;;20.50;62.90;;;;;;5005055;28;20050;-39
2021/09/28 10:49:32;;;;;;;2.33;1.33;;;20.60;62.50;;;;;;5005588;28;20053;-39
2021/09/28 10:52:19;;;;;;;4.60;1.48;;;20.60;61.90;;;;;;5004240;28;20030;-40
2021/09/28 10:55:08;;;;;;;2.83;1.20;;;20.60;62.40;;;;;;5005333;28;20057;-39
2021/09/28 10:58:20;;;;;;;1.92;1.35;;;20.60;62.40;;;;;;5004934;28;20026;-39
2021/09/28 11:00:45;;;;;;;;;;;20.60;62.70;;;;;;4945440;29;20044;-40
2021/09/28 11:03:11;;;;;;;2.90;1.50;;;20.70;63.40;;;;;;4996846;28;19912;-40
2021/09/28 11:05:44;;;;;;;2.80;1.50;;;20.70;63.00;;;;;;5004891;28;20034;-39
2021/09/28 11:08:12;;;;;;;3.10;1.60;;;20.70;62.70;;;;;;5004676;28;20327;-40
2021/09/28 11:10:38;;;;;;;4.53;1.80;;;20.80;62.50;;;;;;5004897;28;20018;-39
2021/09/28 11:13:09;;;;;;;8.95;2.25;;;20.70;62.40;;;;;;5005142;28;20102;-40
2021/09/28 11:15:34;;;;;;;3.85;2.15;;;20.70;62.80;;;;;;5004644;28;20282;-39
2021/09/28 11:18:07;;;;;;;2.53;1.60;;;20.70;63.10;;;;;;5004473;28;20068;-39
2021/09/28 11:20:33;;;;;;;3.25;1.75;;;20.60;62.20;;;;;;5004497;28;20097;-39
2021/09/28 11:22:59;;;;;;;3.40;2.05;;;20.60;62.90;;;;;;5004494;28;20034;-39
2021/09/28 11:25:26;;;;;;;3.70;1.88;;;20.50;62.90;;;;;;5003974;28;20022;-39
2021/09/28 11:28:09;;;;;;;5.00;2.38;;;20.50;62.60;;;;;;5004390;28;20035;-38
2021/09/28 11:30:36;;;;;;;6.65;2.75;;;20.50;62.90;;;;;;5003327;28;20215;-39
2021/09/28 11:33:06;;;;;;;5.82;2.50;;;20.40;61.20;;;;;;5004421;28;20034;-40
2021/09/28 11:35:31;;;;;;;5.70;2.63;;;20.40;61.90;;;;;;5004058;28;20035;-40
2021/09/28 11:38:02;;;;;;;4.72;2.40;;;20.40;62.20;;;;;;5004518;28;20108;-40
2021/09/28 11:40:39;;;;;;;3.95;2.20;;;20.30;62.60;;;;;;5003932;28;20059;-40
2021/09/28 11:43:21;;;;;;;5.68;3.10;;;20.30;62.60;;;;;;5003523;28;20197;-41
2021/09/28 11:46:10;;;;;;;6.05;2.70;;;20.30;63.50;;;;;;5004399;28;20034;-40
2021/09/28 11:48:36;;;;;;;9.32;2.67;;;20.30;62.60;;;;;;5004301;28;20034;-40
2021/09/28 11:51:12;;;;;;;5.55;3.10;;;20.30;63.40;;;;;;5004356;28;20230;-40
2021/09/28 11:53:38;;;;;;;5.97;2.90;;;20.30;63.50;;;;;;5004033;28;20039;-40
2021/09/28 11:56:04;;;;;;;6.97;2.70;;;20.40;62.90;;;;;;5003965;28;20338;-41
2021/09/28 11:58:36;;;;;;;4.13;2.67;;;20.30;63.00;;;;;;5003544;28;20026;-40
2021/09/28 12:01:05;;;;;;;6.18;3.13;;;20.30;63.10;;;;;;5005600;28;20050;-40
2021/09/28 12:03:33;;;;;;;8.75;3.60;;;20.40;63.10;;;;;;5005737;28;20034;-40
2021/09/28 12:06:22;;;;;;;4.10;2.45;;;20.40;62.60;;;;;;5004231;28;20046;-41
2021/09/28 12:08:47;;;;;;;6.05;3.00;;;20.50;62.60;;;;;;5004499;28;20042;-40
2021/09/28 12:11:13;;;;;;;5.30;2.40;;;20.50;62.70;;;;;;5004658;28;20034;-40
2021/09/28 12:13:48;;;;;;;8.70;2.53;;;20.50;62.50;;;;;;5005050;28;20089;-41
2021/09/28 12:16:15;;;;;;;3.72;2.17;;;20.50;62.60;;;;;;5004117;28;20042;-41
2021/09/28 12:18:41;;;;;;;5.10;2.42;;;20.60;62.80;;;;;;4987383;28;20262;-40
2021/09/28 12:21:25;;;;;;;4.50;2.40;;;20.60;62.00;;;;;;5004020;28;20074;-40
2021/09/28 12:24:13;;;;;;;7.00;2.70;;;20.70;62.80;;;;;;5003930;28;20038;-40
2021/09/28 12:26:39;;;;;;;7.22;2.28;;;20.70;62.80;;;;;;5004545;28;20038;-40
2021/09/28 12:29:38;;;;;;;6.47;2.25;;;20.70;62.60;;;;;;5003737;28;20034;-40
2021/09/28 12:32:05;;;;;;;3.28;1.90;;;20.70;62.90;;;;;;4992678;28;20039;-40
2021/09/28 12:34:46;;;;;;;3.70;2.30;;;20.70;62.10;;;;;;5004524;28;20065;-39
2021/09/28 12:37:12;;;;;;;5.55;1.90;;;20.80;62.80;;;;;;5004350;28;20030;-40
2021/09/28 12:39:37;;;;;;;4.07;2.10;;;21.00;62.90;;;;;;5004061;28;20033;-40
2021/09/28 12:42:07;;;;;;;2.55;1.73;;;21.10;61.20;;;;;;5002409;28;20034;-39
2021/09/28 12:44:34;;;;;;;4.27;1.87;;;21.20;61.30;;;;;;5003894;28;20058;-40
2021/09/28 12:47:23;;;;;;;5.45;1.80;;;21.20;61.90;;;;;;5003951;28;20034;-40